Seiryumaru — JD3476 — position and weather

sailwx.info

Track history (hours):
 
Tides and Currents Weather Stations Pressure Air Temp Water Temp Dewpoint Dewpoint Depression Visibility Wind Speed Wind Dir Waves Ship Positions

Seiryumaru

Last reported at 2018-Apr-10 10:22 UTC. Time now 2018-May-22 02:15 UTC.
Position N 34°04' E 132°42'.
Warning: this ship's position is 41 days out of date.

Length 61 m; draft 2.6 m.

Type: Cargo ship. MMSI: 431004176.

Date/timePositionNaut miles runAvg speedWind from/ knotsBaromVisibWave heightAir tempDewpointWater temp
2018-Apr-10 10:22N 34°04' E 132°42'411.0
2018-Apr-10 10:00N 34°02' E 132°38'711.0
2018-Apr-10 09:22N 33°57' E 132°32'510.7
2018-Apr-10 08:55N 33°54' E 132°28'611.2
2018-Apr-10 08:23N 33°50' E 132°22'411.2
2018-Apr-10 08:00N 33°50' E 132°17'1110.8
2018-Apr-10 06:58N 33°46' E 132°04'4 9.7
2018-Apr-10 06:30N 33°48' E 131°59'510.6
2018-Apr-10 06:00N 33°50' E 131°54'510.8
2018-Apr-10 05:30N 33°50' E 131°47'510.5
2018-Apr-10 05:00N 33°51' E 131°41'510.8
2018-Apr-10 04:30N 33°52' E 131°34'510.4
2018-Apr-10 04:00N 33°52' E 131°28'510.5
2018-Apr-10 03:30N 33°52' E 131°22'510.5
2018-Apr-10 03:01N 33°52' E 131°16'510.3
2018-Apr-10 02:30N 33°54' E 131°10'510.6
2018-Apr-10 02:00N 33°57' E 131°04'5 9.8
2018-Apr-10 01:30N 33°58' E 130°59'510.2
2018-Apr-10 01:00N 33°54' E 130°55'4 8.7
2018-Apr-10 00:31N 33°58' E 130°52'3 6.9
2018-Apr-10 00:01N 34°01' E 130°53'1 1.9
2018-Apr-09 23:31N 34°01' E 130°51'4 8.6
2018-Apr-09 23:00N 34°02' E 130°46'510.5
2018-Apr-09 22:30N 34°02' E 130°40'611.6
2018-Apr-09 22:00N 33°59' E 130°34'611.7
2018-Apr-09 21:30N 33°57' E 130°27'611.4
2018-Apr-09 21:01N 33°54' E 130°21'611.5
2018-Apr-09 20:31N 33°51' E 130°15'611.4
2018-Apr-09 20:00N 33°48' E 130°09'611.3
2018-Apr-09 19:30N 33°46' E 130°04'  
Track history (hours):
 
Tides and Currents Weather Stations Pressure Air Temp Water Temp Dewpoint Dewpoint Depression Visibility Wind Speed Wind Dir Waves Ship Positions

Seiryumaru

Last reported at 2018-Apr-10 10:22 UTC. Time now 2018-May-22 02:15 UTC.
Position N 34°04' E 132°42'.
Warning: this ship's position is 41 days out of date.

Length 61 m; draft 2.6 m.

Type: Cargo ship. MMSI: 431004176.

Date/timePositionNaut miles runAvg speedWind from/ knotsBaromVisibWave heightAir tempDewpointWater temp
2018-Apr-10 10:22N 34°04' E 132°42'411.0
2018-Apr-10 10:00N 34°02' E 132°38'711.0
2018-Apr-10 09:22N 33°57' E 132°32'510.7
2018-Apr-10 08:55N 33°54' E 132°28'611.2
2018-Apr-10 08:23N 33°50' E 132°22'411.2
2018-Apr-10 08:00N 33°50' E 132°17'1110.8
2018-Apr-10 06:58N 33°46' E 132°04'4 9.7
2018-Apr-10 06:30N 33°48' E 131°59'510.6
2018-Apr-10 06:00N 33°50' E 131°54'510.8
2018-Apr-10 05:30N 33°50' E 131°47'510.5
2018-Apr-10 05:00N 33°51' E 131°41'510.8
2018-Apr-10 04:30N 33°52' E 131°34'510.4
2018-Apr-10 04:00N 33°52' E 131°28'510.5
2018-Apr-10 03:30N 33°52' E 131°22'510.5
2018-Apr-10 03:01N 33°52' E 131°16'510.3
2018-Apr-10 02:30N 33°54' E 131°10'510.6
2018-Apr-10 02:00N 33°57' E 131°04'5 9.8
2018-Apr-10 01:30N 33°58' E 130°59'510.2
2018-Apr-10 01:00N 33°54' E 130°55'4 8.7
2018-Apr-10 00:31N 33°58' E 130°52'3 6.9
2018-Apr-10 00:01N 34°01' E 130°53'1 1.9
2018-Apr-09 23:31N 34°01' E 130°51'4 8.6
2018-Apr-09 23:00N 34°02' E 130°46'510.5
2018-Apr-09 22:30N 34°02' E 130°40'611.6
2018-Apr-09 22:00N 33°59' E 130°34'611.7
2018-Apr-09 21:30N 33°57' E 130°27'611.4
2018-Apr-09 21:01N 33°54' E 130°21'611.5
2018-Apr-09 20:31N 33°51' E 130°15'611.4
2018-Apr-09 20:00N 33°48' E 130°09'611.3
2018-Apr-09 19:30N 33°46' E 130°04'  

Dump ship's entire track history